createdAt,value
2018-11-25T00:00:26.047Z,49.45
2018-11-25T00:01:31.875Z,51.70
2018-11-25T00:02:37.400Z,50.65
2018-11-25T00:03:43.479Z,50.78
2018-11-25T00:04:48.891Z,51.35
2018-11-25T00:05:54.262Z,51.15
2018-11-25T00:07:14.405Z,50.63
2018-11-25T00:08:19.810Z,50.23
2018-11-25T00:09:25.267Z,46.73
2018-11-25T00:10:30.676Z,46.60
2018-11-25T00:11:36.028Z,49.45
2018-11-25T00:12:41.367Z,47.93
2018-11-25T00:13:46.679Z,48.85
2018-11-25T00:14:52.477Z,48.55
2018-11-25T00:15:57.963Z,47.55
2018-11-25T00:17:03.373Z,48.65
2018-11-25T00:18:08.615Z,46.85
2018-11-25T00:19:13.992Z,47.55
2018-11-25T00:20:19.320Z,49.63
2018-11-25T00:21:24.644Z,48.52
2018-11-25T00:22:29.951Z,48.70
2018-11-25T00:23:35.343Z,49.73
2018-11-25T00:24:40.603Z,47.55
2018-11-25T00:25:46.029Z,46.73
2018-11-25T00:26:52.072Z,48.15
2018-11-25T00:27:58.137Z,47.27
2018-11-25T00:29:03.621Z,47.78
2018-11-25T00:32:39.927Z,44.18
2018-11-25T00:33:45.268Z,46.58
2018-11-25T00:34:55.379Z,46.48
2018-11-25T00:36:01.330Z,49.25
2018-11-25T00:37:08.937Z,49.10
2018-11-25T00:38:14.975Z,48.23
2018-11-25T00:39:21.116Z,45.50
2018-11-25T00:40:26.676Z,46.85
2018-11-25T00:41:34.256Z,48.38
2018-11-25T00:42:40.507Z,48.33
2018-11-25T00:43:46.592Z,48.65
2018-11-25T00:44:52.021Z,46.53
2018-11-25T00:45:59.390Z,47.50
2018-11-25T00:47:04.726Z,47.43
2018-11-25T00:48:10.219Z,49.67
2018-11-25T00:49:15.543Z,46.63
2018-11-25T00:50:20.852Z,46.05
2018-11-25T00:51:26.184Z,46.23
2018-11-25T00:52:31.451Z,47.03
2018-11-25T00:53:36.623Z,45.70
2018-11-25T00:54:43.015Z,46.98
2018-11-25T00:55:48.331Z,46.75
2018-11-25T00:56:53.733Z,46.58
2018-11-25T00:57:59.145Z,46.20
2018-11-25T00:59:04.994Z,46.55
2018-11-25T01:00:14.965Z,47.90
2018-11-25T01:01:20.312Z,47.33
2018-11-25T01:02:25.680Z,46.65
2018-11-25T01:03:31.079Z,45.55
2018-11-25T01:04:37.336Z,45.98
2018-11-25T01:05:42.814Z,44.90
2018-11-25T01:06:48.374Z,44.58
2018-11-25T01:07:53.787Z,45.98
2018-11-25T01:09:04.090Z,47.58
2018-11-25T01:10:11.753Z,44.25
2018-11-25T01:11:17.139Z,43.33
2018-11-25T01:12:23.731Z,43.78
2018-11-25T01:13:29.080Z,45.17
2018-11-25T01:14:34.482Z,44.00
2018-11-25T01:15:39.892Z,44.15
2018-11-25T01:16:45.355Z,44.67
2018-11-25T01:17:50.691Z,45.55
2018-11-25T01:18:55.979Z,46.68
2018-11-25T01:20:02.265Z,45.03
2018-11-25T01:21:07.795Z,46.33
2018-11-25T01:22:13.212Z,45.78
2018-11-25T01:23:19.212Z,43.28
2018-11-25T01:24:24.489Z,44.67
2018-11-25T01:25:29.824Z,45.55
2018-11-25T01:26:35.090Z,44.25
2018-11-25T01:27:44.469Z,46.55
2018-11-25T01:28:51.061Z,44.05
2018-11-25T01:30:02.103Z,44.80
2018-11-25T01:31:07.426Z,45.38
2018-11-25T01:32:12.876Z,45.92
2018-11-25T01:33:20.380Z,47.93
2018-11-25T01:34:29.001Z,48.25
2018-11-25T01:35:34.374Z,46.60
2018-11-25T01:36:41.464Z,46.75
2018-11-25T01:37:47.393Z,48.58
2018-11-25T01:38:53.487Z,46.68
2018-11-25T01:39:59.145Z,48.55
2018-11-25T01:41:05.500Z,47.55
2018-11-25T01:42:10.963Z,48.75
2018-11-25T01:43:16.448Z,47.40
2018-11-25T01:44:22.086Z,46.45
2018-11-25T01:45:27.880Z,48.13
2018-11-25T01:46:33.353Z,47.53
2018-11-25T01:47:39.523Z,50.12
2018-11-25T01:48:45.572Z,46.33
2018-11-25T01:49:51.053Z,47.60
2018-11-25T01:50:56.332Z,45.90
2018-11-25T01:52:01.623Z,43.20
2018-11-25T01:53:07.115Z,47.23
2018-11-25T01:54:12.500Z,46.68
2018-11-25T01:55:19.916Z,45.00
2018-11-25T01:56:25.328Z,44.85
2018-11-25T01:57:30.844Z,46.53
2018-11-25T01:58:36.273Z,44.60
2018-11-25T01:59:41.651Z,46.73
2018-11-25T02:00:47.233Z,45.00
2018-11-25T02:01:52.748Z,44.75
2018-11-25T02:02:58.165Z,43.87
2018-11-25T02:04:03.933Z,45.08
2018-11-25T02:05:09.483Z,46.02
2018-11-25T02:06:15.046Z,45.33
2018-11-25T02:07:20.485Z,43.08
2018-11-25T02:08:26.475Z,43.05
2018-11-25T02:09:32.569Z,44.00
2018-11-25T02:10:37.924Z,42.43
2018-11-25T02:11:43.328Z,41.37
2018-11-25T02:12:48.832Z,45.80
2018-11-25T02:13:54.098Z,46.00
2018-11-25T02:15:00.107Z,45.00
2018-11-25T02:16:06.189Z,44.88
2018-11-25T02:17:11.582Z,46.45
2018-11-25T02:18:17.118Z,42.33
2018-11-25T02:19:22.443Z,44.45
2018-11-25T02:20:27.831Z,42.27
2018-11-25T02:21:33.183Z,44.67
2018-11-25T02:22:38.554Z,44.35
2018-11-25T02:23:44.656Z,43.63
2018-11-25T02:24:50.055Z,43.20
2018-11-25T02:25:56.591Z,43.33
2018-11-25T02:27:02.306Z,43.45
2018-11-25T02:28:08.208Z,43.55
2018-11-25T02:29:13.643Z,46.10
2018-11-25T02:30:19.348Z,44.85
2018-11-25T02:31:25.985Z,44.53
2018-11-25T02:32:31.272Z,43.75
2018-11-25T02:33:36.699Z,44.00
2018-11-25T02:34:43.307Z,46.50
2018-11-25T02:35:48.759Z,44.75
2018-11-25T02:36:55.123Z,45.60
2018-11-25T02:38:00.463Z,45.08
2018-11-25T02:39:08.483Z,46.10
2018-11-25T02:40:14.916Z,44.98
2018-11-25T02:41:21.440Z,47.10
2018-11-25T02:42:27.568Z,47.27
2018-11-25T02:43:32.960Z,44.25
2018-11-25T02:44:39.208Z,46.23
2018-11-25T02:45:46.054Z,46.65
2018-11-25T02:46:51.464Z,47.17
2018-11-25T02:47:57.337Z,45.73
2018-11-25T02:49:03.736Z,46.40
2018-11-25T02:50:15.638Z,46.20
2018-11-25T02:51:21.053Z,46.48
2018-11-25T02:52:26.505Z,47.08
2018-11-25T02:53:31.960Z,47.93
2018-11-25T02:54:37.336Z,46.53
2018-11-25T02:55:44.606Z,45.58
2018-11-25T02:56:49.983Z,48.75
2018-11-25T02:57:55.326Z,45.03
2018-11-25T02:59:00.610Z,46.55
2018-11-25T03:00:05.959Z,47.55
2018-11-25T03:01:12.364Z,49.67
2018-11-25T03:02:17.637Z,48.65
2018-11-25T03:03:22.972Z,52.35
2018-11-25T03:04:28.307Z,48.23
2018-11-25T03:05:33.606Z,49.48
2018-11-25T03:06:38.931Z,49.95
2018-11-25T03:07:45.224Z,50.15
2018-11-25T03:08:52.956Z,51.30
2018-11-25T03:10:00.587Z,47.45
2018-11-25T03:11:09.387Z,54.80
2018-11-25T03:12:16.331Z,58.42
2018-11-25T03:13:22.495Z,51.77
2018-11-25T03:14:27.976Z,51.70
2018-11-25T03:15:34.778Z,51.48
2018-11-25T03:16:42.164Z,54.13
2018-11-25T03:17:47.561Z,49.20
2018-11-25T03:18:53.895Z,49.45
2018-11-25T03:19:59.324Z,47.73
2018-11-25T03:21:05.382Z,51.55
2018-11-25T03:22:11.550Z,50.10
2018-11-25T03:23:16.926Z,46.58
2018-11-25T03:24:22.164Z,46.95
2018-11-25T03:25:28.386Z,47.20
2018-11-25T03:26:33.701Z,46.95
2018-11-25T03:27:39.194Z,47.13
2018-11-25T03:28:44.631Z,48.50
2018-11-25T03:29:49.915Z,48.28
2018-11-25T03:30:56.837Z,47.10
2018-11-25T03:32:02.339Z,46.98
2018-11-25T03:33:07.923Z,44.73
2018-11-25T03:34:13.215Z,44.83
2018-11-25T03:35:18.499Z,42.88
2018-11-25T03:36:23.811Z,46.28
2018-11-25T03:37:29.891Z,46.28
2018-11-25T03:38:35.180Z,45.58
2018-11-25T03:39:41.231Z,46.58
2018-11-25T03:40:47.547Z,43.87
2018-11-25T03:41:52.803Z,42.78
2018-11-25T03:42:58.011Z,44.75
2018-11-25T03:44:03.805Z,45.85
2018-11-25T03:45:12.539Z,46.98
2018-11-25T03:46:18.685Z,46.35
2018-11-25T03:47:24.147Z,44.93
2018-11-25T03:48:29.930Z,49.10
2018-11-25T03:49:35.224Z,46.70
2018-11-25T03:50:41.287Z,45.48
2018-11-25T03:51:49.484Z,51.02
2018-11-25T03:52:54.754Z,53.02
2018-11-25T03:53:59.994Z,47.90
2018-11-25T03:55:08.147Z,48.42
2018-11-25T03:56:13.496Z,47.35
2018-11-25T03:57:18.783Z,43.83
2018-11-25T03:58:25.782Z,46.55
2018-11-25T03:59:31.779Z,49.10
2018-11-25T04:00:37.118Z,46.18
2018-11-25T04:01:43.353Z,49.33
2018-11-25T04:02:50.527Z,51.68
2018-11-25T04:03:55.743Z,48.73
2018-11-25T04:05:01.077Z,49.60
2018-11-25T04:06:07.314Z,50.78
2018-11-25T04:07:12.815Z,51.98
2018-11-25T04:08:18.227Z,47.85
2018-11-25T04:09:23.676Z,48.95
2018-11-25T04:10:34.501Z,54.38
2018-11-25T04:11:39.806Z,49.63
2018-11-25T04:12:45.328Z,48.83
2018-11-25T04:13:50.798Z,54.40
2018-11-25T04:14:56.043Z,57.25
2018-11-25T04:16:01.472Z,50.65
2018-11-25T04:17:07.082Z,55.17
2018-11-25T04:18:12.449Z,46.45
2018-11-25T04:19:17.627Z,45.73
2018-11-25T04:20:23.252Z,48.40
2018-11-25T04:21:29.189Z,49.95
2018-11-25T04:22:38.220Z,49.50
2018-11-25T04:23:45.444Z,43.75
2018-11-25T04:24:51.500Z,45.35
2018-11-25T04:25:59.336Z,46.65
2018-11-25T04:27:04.709Z,53.58
2018-11-25T04:28:10.182Z,52.35
2018-11-25T04:29:15.454Z,55.88
2018-11-25T04:30:21.745Z,49.35
2018-11-25T04:31:26.991Z,46.68
2018-11-25T04:32:32.230Z,44.25
2018-11-25T04:33:37.436Z,48.17
2018-11-25T04:34:42.694Z,47.48
2018-11-25T04:35:47.879Z,51.28
2018-11-25T04:36:53.475Z,50.12
2018-11-25T04:37:59.259Z,51.13
2018-11-25T04:39:04.831Z,48.48
2018-11-25T04:40:11.492Z,47.50
2018-11-25T04:41:16.863Z,45.10
2018-11-25T04:42:22.162Z,49.15
2018-11-25T04:43:27.480Z,45.55
2018-11-25T04:44:32.747Z,50.55
2018-11-25T04:45:39.213Z,52.15
2018-11-25T04:46:44.627Z,48.68
2018-11-25T04:47:49.976Z,48.98
2018-11-25T04:49:00.216Z,49.53
2018-11-25T04:50:09.890Z,53.13
2018-11-25T04:51:16.088Z,44.90
2018-11-25T04:52:21.669Z,46.08
2018-11-25T04:53:27.295Z,46.48
2018-11-25T04:54:32.724Z,46.80
2018-11-25T04:55:38.154Z,46.10
2018-11-25T04:56:46.063Z,46.00
2018-11-25T04:57:53.751Z,46.25
2018-11-25T04:58:59.100Z,43.48
2018-11-25T05:00:07.012Z,50.30
2018-11-25T05:01:13.280Z,49.63
2018-11-25T05:02:18.827Z,51.80
2018-11-25T05:03:26.853Z,56.23
2018-11-25T05:04:32.999Z,50.35
2018-11-25T05:05:39.247Z,49.90
2018-11-25T05:06:44.708Z,46.95
2018-11-25T05:07:51.313Z,49.20
2018-11-25T05:08:58.668Z,48.60
2018-11-25T05:10:06.059Z,47.17
2018-11-25T05:11:13.285Z,47.90
2018-11-25T05:12:21.055Z,51.30
2018-11-25T05:13:28.492Z,48.78
2018-11-25T05:14:34.529Z,48.85
2018-11-25T05:15:42.442Z,43.42
2018-11-25T05:16:48.775Z,46.08
2018-11-25T05:17:53.998Z,48.00
2018-11-25T05:19:01.508Z,45.78
2018-11-25T05:20:08.936Z,45.92
2018-11-25T05:21:14.286Z,46.15
2018-11-25T05:22:20.715Z,44.77
2018-11-25T05:23:26.881Z,48.05
2018-11-25T05:24:33.234Z,44.08
2018-11-25T05:25:39.209Z,46.08
2018-11-25T05:26:45.850Z,44.98
2018-11-25T05:27:52.912Z,48.10
2018-11-25T05:30:16.478Z,45.90
2018-11-25T05:31:24.822Z,47.78
2018-11-25T05:32:30.520Z,45.92
2018-11-25T05:33:36.954Z,50.90
2018-11-25T05:34:43.175Z,51.02
2018-11-25T05:35:48.428Z,48.87
2018-11-25T05:36:55.079Z,47.08
2018-11-25T05:38:00.905Z,46.18
2018-11-25T05:39:09.268Z,45.45
2018-11-25T05:40:15.608Z,43.00
2018-11-25T05:41:20.898Z,47.60
2018-11-25T05:42:26.244Z,48.58
2018-11-25T05:43:32.584Z,47.10
2018-11-25T05:44:37.983Z,45.63
2018-11-25T05:45:43.307Z,46.08
2018-11-25T05:46:49.742Z,51.37
2018-11-25T05:47:55.044Z,47.98
2018-11-25T05:49:00.996Z,49.70
2018-11-25T05:50:15.584Z,45.98
2018-11-25T05:51:24.969Z,46.18
2018-11-25T05:52:31.896Z,50.05
2018-11-25T05:53:38.568Z,43.83
2018-11-25T05:54:44.466Z,46.45
2018-11-25T05:55:50.304Z,48.87
2018-11-25T05:56:55.782Z,46.45
2018-11-25T05:58:01.053Z,46.95
2018-11-25T05:59:07.208Z,45.95
2018-11-25T06:00:18.708Z,48.30
2018-11-25T06:01:24.215Z,45.55
2018-11-25T06:02:29.473Z,47.45
2018-11-25T06:03:35.331Z,47.48
2018-11-25T06:04:41.018Z,50.85
2018-11-25T06:05:46.383Z,50.30
2018-11-25T06:06:51.680Z,51.15
2018-11-25T06:07:56.973Z,52.50
2018-11-25T06:09:02.239Z,48.80
2018-11-25T06:10:10.044Z,51.85
2018-11-25T06:11:15.392Z,50.23
2018-11-25T06:12:20.799Z,49.75
2018-11-25T06:13:26.115Z,53.15
2018-11-25T06:14:32.465Z,53.98
2018-11-25T06:15:37.787Z,63.85
2018-11-25T06:16:44.124Z,61.53
2018-11-25T06:17:49.422Z,57.73
2018-11-25T06:18:54.639Z,58.92
2018-11-25T06:19:59.937Z,51.88
2018-11-25T06:21:05.306Z,51.65
2018-11-25T06:22:12.302Z,58.23
2018-11-25T06:23:17.634Z,51.55
2018-11-25T06:24:22.971Z,53.98
2018-11-25T06:25:28.532Z,69.53
2018-11-25T06:26:33.823Z,64.72
2018-11-25T06:27:39.190Z,62.23
2018-11-25T06:28:44.568Z,58.40
2018-11-25T06:29:49.879Z,59.73
2018-11-25T06:30:55.971Z,60.38
2018-11-25T06:32:04.846Z,53.42
2018-11-25T06:33:11.276Z,52.80
2018-11-25T06:34:16.796Z,53.90
2018-11-25T06:35:23.109Z,57.23
2018-11-25T06:36:29.741Z,57.20
2018-11-25T06:37:36.061Z,56.42
2018-11-25T06:38:41.992Z,55.92
2018-11-25T06:39:48.400Z,55.03
2018-11-25T06:40:53.776Z,49.80
2018-11-25T06:41:59.107Z,68.60
2018-11-25T06:43:05.159Z,55.00
2018-11-25T06:44:11.361Z,56.58
2018-11-25T06:45:21.836Z,53.70
2018-11-25T06:46:27.267Z,53.28
2018-11-25T06:47:33.869Z,63.65
2018-11-25T06:48:39.871Z,70.35
2018-11-25T06:49:47.825Z,55.73
2018-11-25T06:50:54.490Z,57.30
2018-11-25T06:51:59.743Z,56.65
2018-11-25T06:53:05.670Z,56.13
2018-11-25T06:54:11.112Z,56.55
2018-11-25T06:55:17.426Z,57.58
2018-11-25T06:56:27.342Z,50.78
2018-11-25T06:57:28.413Z,51.77
2018-11-25T06:58:34.236Z,51.95
2018-11-25T06:59:39.563Z,50.48
2018-11-25T07:00:45.219Z,51.35
2018-11-25T07:01:51.538Z,52.27
2018-11-25T07:02:56.901Z,51.53
2018-11-25T07:04:03.814Z,54.50
2018-11-25T07:05:10.652Z,51.05
2018-11-25T07:06:16.077Z,52.43
2018-11-25T07:07:22.139Z,52.43
2018-11-25T07:08:27.595Z,52.50
2018-11-25T07:09:37.422Z,54.63
2018-11-25T07:10:45.991Z,54.08
2018-11-25T07:11:52.929Z,56.02
2018-11-25T07:13:00.083Z,55.23
2018-11-25T07:14:05.884Z,52.85
2018-11-25T07:15:14.515Z,57.60
2018-11-25T07:16:23.027Z,53.85
2018-11-25T07:17:29.982Z,53.40
2018-11-25T07:18:39.060Z,55.78
2018-11-25T07:19:44.378Z,50.60
2018-11-25T07:20:50.860Z,54.03
2018-11-25T07:21:56.292Z,53.08
2018-11-25T07:23:02.597Z,55.83
2018-11-25T07:24:09.432Z,54.50
2018-11-25T07:25:20.922Z,53.35
2018-11-25T07:26:26.775Z,52.00
2018-11-25T07:27:33.551Z,53.80
2018-11-25T07:28:39.692Z,57.98
2018-11-25T07:29:45.010Z,55.52
2018-11-25T07:30:50.442Z,52.90
2018-11-25T07:31:55.834Z,55.15
2018-11-25T07:33:01.280Z,56.73
2018-11-25T07:34:07.841Z,52.03
2018-11-25T07:35:13.809Z,65.72
2018-11-25T07:36:20.250Z,58.40
2018-11-25T07:37:26.604Z,55.43
2018-11-25T07:38:32.489Z,51.98
2018-11-25T07:39:38.047Z,53.50
2018-11-25T07:40:44.155Z,54.88
2018-11-25T07:41:49.551Z,49.85
2018-11-25T07:42:56.699Z,50.98
2018-11-25T07:44:02.958Z,48.60
2018-11-25T07:45:15.450Z,46.33
2018-11-25T07:46:22.385Z,46.40
2018-11-25T07:47:28.226Z,49.27
2018-11-25T07:48:33.796Z,47.67
2018-11-25T07:49:40.081Z,47.20
2018-11-25T07:50:46.446Z,46.10
2018-11-25T07:51:52.856Z,46.35
2018-11-25T07:52:59.992Z,46.35
2018-11-25T07:54:05.440Z,43.98
2018-11-25T07:55:13.833Z,47.62
2018-11-25T07:56:20.199Z,46.88
2018-11-25T07:57:26.482Z,47.33
2018-11-25T07:58:32.991Z,47.17
2018-11-25T07:59:39.373Z,44.45
2018-11-25T08:00:45.403Z,46.37
2018-11-25T08:01:50.881Z,49.70
2018-11-25T08:02:56.422Z,45.43
2018-11-25T08:04:02.400Z,48.02
2018-11-25T08:05:09.383Z,49.42
2018-11-25T08:06:14.758Z,48.65
2018-11-25T08:07:20.975Z,45.23
2018-11-25T08:08:28.587Z,44.25
2018-11-25T08:09:34.855Z,49.80
2018-11-25T08:10:40.482Z,47.25
2018-11-25T08:11:47.864Z,47.90
2018-11-25T08:12:53.284Z,47.15
2018-11-25T08:13:58.608Z,45.92
2018-11-25T08:15:04.035Z,46.63
2018-11-25T08:16:09.537Z,48.33
2018-11-25T08:17:15.053Z,49.38
2018-11-25T08:18:20.331Z,50.55
2018-11-25T08:19:26.700Z,46.95
2018-11-25T08:20:32.240Z,48.83
2018-11-25T08:21:39.570Z,49.27
2018-11-25T08:22:45.710Z,48.23
2018-11-25T08:23:54.220Z,47.50
2018-11-25T08:24:59.692Z,46.45
2018-11-25T08:26:05.111Z,49.35
2018-11-25T08:27:11.079Z,47.15
2018-11-25T08:28:16.512Z,48.20
2018-11-25T08:29:23.622Z,48.52
2018-11-25T08:30:30.611Z,47.08
2018-11-25T08:31:36.998Z,47.93
2018-11-25T08:32:43.459Z,46.63
2018-11-25T08:33:49.499Z,48.15
2018-11-25T08:34:56.438Z,49.88
2018-11-25T08:36:02.851Z,49.27
2018-11-25T08:37:10.127Z,47.90
2018-11-25T08:38:16.933Z,47.85
2018-11-25T08:39:23.151Z,50.60
2018-11-25T08:40:28.623Z,48.42
2018-11-25T08:41:33.992Z,49.48
2018-11-25T08:42:39.436Z,45.65
2018-11-25T08:43:44.918Z,48.70
2018-11-25T08:44:51.758Z,49.30
2018-11-25T08:45:57.477Z,48.45
2018-11-25T08:47:02.907Z,49.00
2018-11-25T08:48:08.391Z,48.38
2018-11-25T08:49:14.464Z,46.98
2018-11-25T08:50:20.983Z,48.42
2018-11-25T08:51:28.955Z,46.08
2018-11-25T08:52:36.324Z,48.13
2018-11-25T08:53:41.853Z,44.25
2018-11-25T08:54:49.319Z,46.30
2018-11-25T08:55:54.762Z,51.23
2018-11-25T08:57:00.718Z,49.85
2018-11-25T08:58:07.844Z,53.13
2018-11-25T08:59:14.267Z,55.10
2018-11-25T09:00:22.458Z,54.42
2018-11-25T09:01:29.081Z,53.00
2018-11-25T09:02:34.442Z,55.25
2018-11-25T09:03:40.922Z,54.13
2018-11-25T09:04:48.279Z,56.42
2018-11-25T09:05:53.728Z,53.70
2018-11-25T09:06:59.051Z,53.58
2018-11-25T09:08:04.445Z,57.30
2018-11-25T09:09:10.861Z,56.63
2018-11-25T09:10:20.086Z,57.93
2018-11-25T09:11:25.790Z,54.42
2018-11-25T09:12:33.010Z,54.90
2018-11-25T09:13:39.412Z,55.70
2018-11-25T09:14:44.939Z,53.45
2018-11-25T09:15:51.078Z,55.75
2018-11-25T09:16:57.961Z,55.38
2018-11-25T09:18:05.248Z,58.85
2018-11-25T09:19:13.382Z,57.03
2018-11-25T09:20:19.987Z,54.93
2018-11-25T09:21:26.410Z,54.85
2018-11-25T09:22:33.362Z,54.48
2018-11-25T09:23:38.873Z,55.80
2018-11-25T09:24:44.800Z,55.28
2018-11-25T09:25:50.838Z,55.65
2018-11-25T09:26:58.891Z,52.67
2018-11-25T09:28:05.371Z,56.25
2018-11-25T09:29:10.810Z,55.12
2018-11-25T09:30:19.591Z,56.70
2018-11-25T09:31:25.683Z,57.25
2018-11-25T09:32:32.575Z,55.67
2018-11-25T09:33:38.149Z,55.70
2018-11-25T09:34:43.645Z,56.65
2018-11-25T09:35:49.041Z,54.77
2018-11-25T09:36:54.524Z,54.90
2018-11-25T09:38:00.826Z,57.53
2018-11-25T09:39:10.142Z,55.35
2018-11-25T09:40:18.654Z,55.50
2018-11-25T09:41:25.117Z,57.93
2018-11-25T09:42:31.658Z,56.00
2018-11-25T09:43:38.008Z,56.95
2018-11-25T09:44:44.853Z,58.58
2018-11-25T09:45:50.292Z,58.25
2018-11-25T09:46:55.920Z,58.45
2018-11-25T09:48:01.262Z,60.03
2018-11-25T09:49:07.956Z,62.45
2018-11-25T09:50:19.843Z,59.30
2018-11-25T09:51:26.476Z,58.60
2018-11-25T09:52:32.106Z,63.80
2018-11-25T09:53:37.550Z,61.85
2018-11-25T09:54:43.125Z,60.50
2018-11-25T09:55:48.561Z,61.63
2018-11-25T09:56:54.684Z,66.70
2018-11-25T09:58:02.975Z,67.05
2018-11-25T09:59:08.555Z,67.22
2018-11-25T10:00:21.274Z,66.10
2018-11-25T10:01:30.556Z,67.40
2018-11-25T10:02:37.791Z,65.75
2018-11-25T10:03:45.127Z,67.70
2018-11-25T10:04:54.222Z,65.05
2018-11-25T10:05:59.618Z,66.87
2018-11-25T10:07:06.852Z,66.55
2018-11-25T10:08:12.278Z,67.35
2018-11-25T10:09:19.347Z,63.60
2018-11-25T10:10:26.375Z,65.08
2018-11-25T10:11:31.827Z,67.42
2018-11-25T10:12:37.320Z,64.15
2018-11-25T10:13:43.032Z,61.58
2018-11-25T10:14:48.396Z,65.62
2018-11-25T10:15:54.094Z,65.85
2018-11-25T10:17:02.241Z,63.75
2018-11-25T10:18:07.794Z,64.70
2018-11-25T10:19:13.795Z,63.13
2018-11-25T10:20:22.078Z,67.03
2018-11-25T10:21:27.576Z,65.40
2018-11-25T10:22:33.771Z,65.87
2018-11-25T10:23:39.319Z,62.17
2018-11-25T10:24:45.845Z,65.52
2018-11-25T10:25:53.468Z,62.65
2018-11-25T10:27:01.946Z,64.45
2018-11-25T10:28:07.642Z,62.27
2018-11-25T10:29:13.834Z,63.92
2018-11-25T10:30:22.972Z,62.13
2018-11-25T10:31:28.396Z,61.05
2018-11-25T10:32:35.919Z,63.02
2018-11-25T10:33:42.085Z,59.23
2018-11-25T10:34:50.062Z,61.83
2018-11-25T10:35:58.008Z,57.93
2018-11-25T10:37:05.072Z,61.23
2018-11-25T10:38:12.223Z,59.90
2018-11-25T10:39:20.576Z,57.60
2018-11-25T10:40:27.188Z,59.35
2018-11-25T10:41:35.889Z,60.25
2018-11-25T10:42:42.368Z,56.77
2018-11-25T10:43:47.787Z,57.38
2018-11-25T10:44:53.291Z,57.23
2018-11-25T10:45:58.981Z,57.78
2018-11-25T10:47:04.434Z,56.75
2018-11-25T10:48:09.941Z,58.63
2018-11-25T10:49:16.972Z,56.37
2018-11-25T10:50:26.810Z,59.03
2018-11-25T10:51:35.025Z,57.45
2018-11-25T10:52:41.225Z,55.12
2018-11-25T10:53:52.894Z,56.83
2018-11-25T10:55:05.299Z,57.88
2018-11-25T10:56:19.621Z,57.53
2018-11-25T10:57:31.022Z,54.60
2018-11-25T10:58:42.839Z,56.58
2018-11-25T10:59:52.137Z,58.23
2018-11-25T11:01:04.807Z,58.05
2018-11-25T11:02:15.988Z,57.60
2018-11-25T11:03:27.132Z,58.10
2018-11-25T11:04:38.952Z,58.02
2018-11-25T11:05:52.855Z,60.33
2018-11-25T11:07:03.957Z,58.08
2018-11-25T11:08:11.450Z,57.20
2018-11-25T11:09:18.506Z,58.20
2018-11-25T11:10:25.860Z,58.28
2018-11-25T11:11:33.286Z,60.50
2018-11-25T11:12:43.486Z,61.73
2018-11-25T11:13:52.039Z,58.92
2018-11-25T11:14:57.803Z,77.90
2018-11-25T11:16:07.593Z,67.32
2018-11-25T11:17:17.613Z,63.98
2018-11-25T11:18:27.646Z,61.08
2018-11-25T11:19:33.108Z,59.03
2018-11-25T11:20:42.030Z,58.78
2018-11-25T11:21:47.780Z,56.77
2018-11-25T11:22:53.073Z,59.30
2018-11-25T11:23:58.379Z,56.75
2018-11-25T11:25:05.069Z,55.58
2018-11-25T11:26:22.793Z,59.13
2018-11-25T11:27:28.071Z,56.98
2018-11-25T11:28:39.770Z,61.10
2018-11-25T11:29:45.532Z,60.85
2018-11-25T11:30:51.319Z,61.45
2018-11-25T11:31:56.653Z,62.67
2018-11-25T11:33:02.008Z,61.75
2018-11-25T11:34:07.313Z,61.90
2018-11-25T11:35:12.577Z,63.05
2018-11-25T11:36:17.809Z,61.13
2018-11-25T11:37:26.725Z,63.33
2018-11-25T11:38:32.010Z,61.58
2018-11-25T11:39:37.604Z,61.23
2018-11-25T11:40:42.851Z,61.63
2018-11-25T11:41:49.855Z,64.00
2018-11-25T11:42:57.659Z,67.25
2018-11-25T11:44:05.892Z,65.32
2018-11-25T11:45:17.862Z,68.52
2018-11-25T11:46:25.376Z,66.20
2018-11-25T11:47:33.673Z,68.40
2018-11-25T11:48:41.840Z,68.60
2018-11-25T11:49:50.568Z,69.45
2018-11-25T11:50:58.177Z,65.25
2018-11-25T11:52:06.351Z,66.57
2018-11-25T11:53:15.652Z,69.72
2018-11-25T11:54:24.293Z,71.92
2018-11-25T11:55:32.304Z,69.05
2018-11-25T11:56:40.741Z,77.60
2018-11-25T11:57:49.274Z,74.70
2018-11-25T11:58:54.687Z,76.33
2018-11-25T12:00:00.030Z,74.22
2018-11-25T12:01:05.735Z,73.22
2018-11-25T12:02:11.758Z,68.50
2018-11-25T12:03:17.035Z,67.12
2018-11-25T12:04:22.179Z,69.07
2018-11-25T12:05:27.372Z,65.80
2018-11-25T12:06:32.782Z,65.83
2018-11-25T12:10:12.029Z,59.95
2018-11-25T12:11:18.043Z,61.80
2018-11-25T12:12:23.229Z,61.05
2018-11-25T12:13:28.580Z,61.10
2018-11-25T12:14:33.987Z,61.08
2018-11-25T12:15:39.255Z,59.35
2018-11-25T12:16:44.570Z,59.88
2018-11-25T12:17:49.745Z,61.95
2018-11-25T12:18:55.544Z,60.25
2018-11-25T12:20:00.718Z,64.27
2018-11-25T12:21:06.102Z,59.85
2018-11-25T12:22:13.524Z,61.80
2018-11-25T12:23:18.800Z,61.70
2018-11-25T12:24:24.024Z,56.70
2018-11-25T12:25:29.229Z,59.35
2018-11-25T12:26:34.415Z,57.53
2018-11-25T12:27:39.663Z,59.48
2018-11-25T12:28:45.162Z,61.08
2018-11-25T12:29:50.467Z,61.55
2018-11-25T12:30:55.675Z,57.70
2018-11-25T12:32:00.842Z,61.50
2018-11-25T12:33:06.615Z,61.42
2018-11-25T12:34:11.979Z,64.00
2018-11-25T12:35:17.977Z,58.17
2018-11-25T12:36:23.428Z,59.53
2018-11-25T12:37:29.255Z,59.33
2018-11-25T12:38:33.975Z,59.83
2018-11-25T12:39:39.210Z,58.83
2018-11-25T12:40:44.423Z,60.98
2018-11-25T12:41:49.659Z,61.75
2018-11-25T12:42:57.952Z,60.83
2018-11-25T12:44:03.197Z,60.48
2018-11-25T12:45:12.155Z,58.73
2018-11-25T12:46:22.208Z,60.67
2018-11-25T12:47:27.423Z,56.90
2018-11-25T12:48:32.782Z,56.75
2018-11-25T12:49:38.011Z,55.92
2018-11-25T12:50:43.382Z,55.98
2018-11-25T12:51:49.099Z,55.70
2018-11-25T12:52:54.334Z,56.42
2018-11-25T12:53:59.485Z,63.83
2018-11-25T12:55:04.857Z,65.90
2018-11-25T12:56:10.066Z,64.40
2018-11-25T12:57:15.268Z,62.65
2018-11-25T12:58:20.428Z,61.88
2018-11-25T12:59:25.649Z,63.87
2018-11-25T13:00:37.147Z,60.08
2018-11-25T13:01:42.390Z,57.00
2018-11-25T13:02:47.604Z,55.20
2018-11-25T13:03:52.740Z,57.00
2018-11-25T13:04:58.549Z,53.30
2018-11-25T13:06:03.712Z,55.00
2018-11-25T13:07:08.918Z,51.50
2018-11-25T13:08:15.100Z,50.55
2018-11-25T13:09:20.257Z,50.43
2018-11-25T13:10:25.464Z,51.45
2018-11-25T13:11:30.683Z,51.90
2018-11-25T13:12:35.835Z,53.23
2018-11-25T13:13:41.047Z,52.43
2018-11-25T13:14:46.787Z,51.53
2018-11-25T13:15:51.967Z,51.30
2018-11-25T13:16:57.173Z,52.78
2018-11-25T13:18:02.440Z,50.83
2018-11-25T13:19:08.124Z,52.27
2018-11-25T13:20:14.607Z,49.77
2018-11-25T13:21:19.769Z,53.70
2018-11-25T13:22:25.859Z,52.08
2018-11-25T13:23:32.179Z,56.37
2018-11-25T13:24:37.376Z,57.70
2018-11-25T13:25:42.561Z,56.90
2018-11-25T13:26:47.775Z,53.20
2018-11-25T13:27:53.050Z,55.85
2018-11-25T13:28:58.406Z,54.33
2018-11-25T13:30:03.751Z,53.25
2018-11-25T13:31:09.022Z,51.45
2018-11-25T13:32:14.119Z,50.38
2018-11-25T13:33:19.377Z,51.58
2018-11-25T13:34:24.592Z,51.37
2018-11-25T13:35:31.223Z,52.17
2018-11-25T13:36:36.330Z,51.42
2018-11-25T13:37:41.559Z,51.85
2018-11-25T13:38:46.796Z,53.30
2018-11-25T13:39:52.396Z,52.00
2018-11-25T13:40:57.565Z,70.22
2018-11-25T13:42:02.752Z,53.73
2018-11-25T13:43:08.347Z,54.55
2018-11-25T13:44:13.562Z,53.83
2018-11-25T13:45:18.869Z,55.35
2018-11-25T13:46:25.102Z,55.58
2018-11-25T13:47:30.347Z,53.45
2018-11-25T13:48:35.464Z,53.92
2018-11-25T13:49:40.773Z,53.02
2018-11-25T13:50:46.154Z,55.33
2018-11-25T13:51:51.390Z,53.25
2018-11-25T13:52:56.640Z,53.52
2018-11-25T13:54:01.903Z,53.98
2018-11-25T13:55:10.273Z,55.65
2018-11-25T13:56:15.438Z,52.05
2018-11-25T13:57:20.805Z,55.20
2018-11-25T13:58:26.165Z,55.15
2018-11-25T13:59:31.430Z,55.05
2018-11-25T14:00:44.864Z,54.23
2018-11-25T14:01:50.060Z,53.52
2018-11-25T14:02:55.565Z,54.08
2018-11-25T14:04:00.740Z,54.10
2018-11-25T14:05:06.330Z,53.15
2018-11-25T14:06:13.625Z,55.15
2018-11-25T14:07:18.780Z,54.00
2018-11-25T14:08:23.888Z,54.42
2018-11-25T14:09:30.229Z,55.67
2018-11-25T14:10:35.850Z,55.10
2018-11-25T14:11:41.090Z,53.95
2018-11-25T14:12:46.320Z,54.05
2018-11-25T14:13:51.504Z,55.50
2018-11-25T14:14:57.178Z,54.15
2018-11-25T14:16:02.356Z,54.65
2018-11-25T14:17:07.598Z,53.68
2018-11-25T14:18:12.768Z,52.95
2018-11-25T14:19:19.170Z,54.10
2018-11-25T14:20:24.286Z,54.40